sensor_id;sensor_type;location;lat;lon;timestamp;temperature;humidity
62583;DHT22;48641;51.676;5.808;2023-03-01T00:01:18;13.80;57.80
62583;DHT22;48641;51.676;5.808;2023-03-01T00:03:44;13.80;57.80
62583;DHT22;48641;51.676;5.808;2023-03-01T00:06:10;13.70;57.80
62583;DHT22;48641;51.676;5.808;2023-03-01T00:08:39;13.70;58.10
62583;DHT22;48641;51.676;5.808;2023-03-01T00:11:07;13.70;58.00
62583;DHT22;48641;51.676;5.808;2023-03-01T00:13:33;13.70;58.00
62583;DHT22;48641;51.676;5.808;2023-03-01T00:16:04;13.70;58.00
62583;DHT22;48641;51.676;5.808;2023-03-01T00:18:30;13.70;58.00
62583;DHT22;48641;51.676;5.808;2023-03-01T00:20:56;13.70;57.90
62583;DHT22;48641;51.676;5.808;2023-03-01T00:23:22;13.70;57.90
62583;DHT22;48641;51.676;5.808;2023-03-01T00:25:48;13.70;57.90
62583;DHT22;48641;51.676;5.808;2023-03-01T00:28:14;13.70;57.90
62583;DHT22;48641;51.676;5.808;2023-03-01T00:30:40;13.70;57.90
62583;DHT22;48641;51.676;5.808;2023-03-01T00:33:06;13.70;57.90
62583;DHT22;48641;51.676;5.808;2023-03-01T00:35:35;13.70;57.90
62583;DHT22;48641;51.676;5.808;2023-03-01T00:38:00;13.60;57.80
62583;DHT22;48641;51.676;5.808;2023-03-01T00:40:28;13.70;58.80
62583;DHT22;48641;51.676;5.808;2023-03-01T00:42:54;13.60;57.80
62583;DHT22;48641;51.676;5.808;2023-03-01T00:45:19;13.60;57.70
62583;DHT22;48641;51.676;5.808;2023-03-01T00:47:45;13.60;57.80
62583;DHT22;48641;51.676;5.808;2023-03-01T00:50:11;13.70;57.80
62583;DHT22;48641;51.676;5.808;2023-03-01T00:52:37;13.60;57.70
62583;DHT22;48641;51.676;5.808;2023-03-01T00:55:04;13.60;57.70
62583;DHT22;48641;51.676;5.808;2023-03-01T00:57:30;13.60;57.80
62583;DHT22;48641;51.676;5.808;2023-03-01T00:59:55;13.60;58.80
62583;DHT22;48641;51.676;5.808;2023-03-01T01:02:22;13.60;57.80
62583;DHT22;48641;51.676;5.808;2023-03-01T01:04:48;13.60;57.80
62583;DHT22;48641;51.676;5.808;2023-03-01T01:07:14;13.60;57.80
62583;DHT22;48641;51.676;5.808;2023-03-01T01:09:40;13.60;57.80
62583;DHT22;48641;51.676;5.808;2023-03-01T01:12:06;13.60;57.80
62583;DHT22;48641;51.676;5.808;2023-03-01T01:14:32;13.60;57.80
62583;DHT22;48641;51.676;5.808;2023-03-01T01:16:58;13.60;57.80
62583;DHT22;48641;51.676;5.808;2023-03-01T01:19:25;13.60;57.80
62583;DHT22;48641;51.676;5.808;2023-03-01T01:21:51;13.60;58.80
62583;DHT22;48641;51.676;5.808;2023-03-01T01:24:17;13.60;57.80
62583;DHT22;48641;51.676;5.808;2023-03-01T01:26:44;13.60;57.80
62583;DHT22;48641;51.676;5.808;2023-03-01T01:29:10;13.60;57.80
62583;DHT22;48641;51.676;5.808;2023-03-01T01:31:37;13.60;57.80
62583;DHT22;48641;51.676;5.808;2023-03-01T01:34:05;13.60;57.80
62583;DHT22;48641;51.676;5.808;2023-03-01T01:36:33;13.60;57.90
62583;DHT22;48641;51.676;5.808;2023-03-01T01:38:59;13.60;57.80
62583;DHT22;48641;51.676;5.808;2023-03-01T01:41:27;13.60;57.80
62583;DHT22;48641;51.676;5.808;2023-03-01T01:46:40;13.70;57.80
62583;DHT22;48641;51.676;5.808;2023-03-01T01:49:17;13.60;57.80
62583;DHT22;48641;51.676;5.808;2023-03-01T01:51:46;13.60;57.80
62583;DHT22;48641;51.676;5.808;2023-03-01T01:54:34;13.60;57.80
62583;DHT22;48641;51.676;5.808;2023-03-01T01:57:04;13.60;57.80
62583;DHT22;48641;51.676;5.808;2023-03-01T01:59:32;13.60;57.80
62583;DHT22;48641;51.676;5.808;2023-03-01T02:02:01;13.60;57.90
62583;DHT22;48641;51.676;5.808;2023-03-01T02:04:29;13.60;57.80
62583;DHT22;48641;51.676;5.808;2023-03-01T02:07:02;13.60;57.80
62583;DHT22;48641;51.676;5.808;2023-03-01T02:09:30;13.60;57.80
62583;DHT22;48641;51.676;5.808;2023-03-01T02:11:57;13.60;57.80
62583;DHT22;48641;51.676;5.808;2023-03-01T02:14:23;13.60;57.80
62583;DHT22;48641;51.676;5.808;2023-03-01T02:16:49;13.60;57.90
62583;DHT22;48641;51.676;5.808;2023-03-01T02:19:31;13.60;57.80
62583;DHT22;48641;51.676;5.808;2023-03-01T02:22:30;13.60;57.80
62583;DHT22;48641;51.676;5.808;2023-03-01T02:30:24;13.60;57.80
62583;DHT22;48641;51.676;5.808;2023-03-01T02:32:51;13.60;57.90
62583;DHT22;48641;51.676;5.808;2023-03-01T02:35:18;13.60;57.80
62583;DHT22;48641;51.676;5.808;2023-03-01T02:37:45;13.60;57.90
62583;DHT22;48641;51.676;5.808;2023-03-01T02:40:15;13.60;57.80
62583;DHT22;48641;51.676;5.808;2023-03-01T02:42:57;13.60;57.80
62583;DHT22;48641;51.676;5.808;2023-03-01T02:45:24;13.60;57.70
62583;DHT22;48641;51.676;5.808;2023-03-01T02:47:49;13.60;57.70
62583;DHT22;48641;51.676;5.808;2023-03-01T02:55:21;13.70;57.70
62583;DHT22;48641;51.676;5.808;2023-03-01T02:57:48;13.60;57.70
62583;DHT22;48641;51.676;5.808;2023-03-01T03:00:23;13.60;57.60
62583;DHT22;48641;51.676;5.808;2023-03-01T03:02:52;13.60;57.60
62583;DHT22;48641;51.676;5.808;2023-03-01T03:05:21;13.60;57.90
62583;DHT22;48641;51.676;5.808;2023-03-01T03:07:49;13.60;57.80
62583;DHT22;48641;51.676;5.808;2023-03-01T03:10:23;13.60;57.80
62583;DHT22;48641;51.676;5.808;2023-03-01T03:13:00;13.60;57.80
62583;DHT22;48641;51.676;5.808;2023-03-01T03:15:27;13.60;57.80
62583;DHT22;48641;51.676;5.808;2023-03-01T03:17:53;13.60;57.90
62583;DHT22;48641;51.676;5.808;2023-03-01T03:20:21;13.60;57.70
62583;DHT22;48641;51.676;5.808;2023-03-01T03:22:49;13.60;57.70
62583;DHT22;48641;51.676;5.808;2023-03-01T03:25:16;13.60;57.70
62583;DHT22;48641;51.676;5.808;2023-03-01T03:27:43;13.60;57.60
62583;DHT22;48641;51.676;5.808;2023-03-01T03:30:12;13.60;57.60
62583;DHT22;48641;51.676;5.808;2023-03-01T03:32:39;13.60;57.50
62583;DHT22;48641;51.676;5.808;2023-03-01T03:35:06;13.60;57.50
62583;DHT22;48641;51.676;5.808;2023-03-01T03:37:41;13.60;57.50
62583;DHT22;48641;51.676;5.808;2023-03-01T03:40:27;13.60;57.50
62583;DHT22;48641;51.676;5.808;2023-03-01T03:42:54;13.60;57.60
62583;DHT22;48641;51.676;5.808;2023-03-01T03:45:20;13.60;57.60
62583;DHT22;48641;51.676;5.808;2023-03-01T03:47:45;13.60;57.50
62583;DHT22;48641;51.676;5.808;2023-03-01T03:50:13;13.60;57.50
62583;DHT22;48641;51.676;5.808;2023-03-01T03:52:40;13.60;57.50
62583;DHT22;48641;51.676;5.808;2023-03-01T03:55:07;13.60;57.50
62583;DHT22;48641;51.676;5.808;2023-03-01T03:57:40;13.60;57.40
62583;DHT22;48641;51.676;5.808;2023-03-01T04:00:08;13.60;57.40
62583;DHT22;48641;51.676;5.808;2023-03-01T04:02:45;13.60;57.40
62583;DHT22;48641;51.676;5.808;2023-03-01T04:05:12;13.60;57.30
62583;DHT22;48641;51.676;5.808;2023-03-01T04:07:39;13.60;57.30
62583;DHT22;48641;51.676;5.808;2023-03-01T04:10:08;13.60;58.30
62583;DHT22;48641;51.676;5.808;2023-03-01T04:12:34;13.60;57.30
62583;DHT22;48641;51.676;5.808;2023-03-01T04:15:04;13.60;57.30
62583;DHT22;48641;51.676;5.808;2023-03-01T04:17:42;13.60;57.40
62583;DHT22;48641;51.676;5.808;2023-03-01T04:20:16;13.60;57.30
62583;DHT22;48641;51.676;5.808;2023-03-01T04:22:43;13.60;57.30
62583;DHT22;48641;51.676;5.808;2023-03-01T04:25:12;13.60;57.30
62583;DHT22;48641;51.676;5.808;2023-03-01T04:27:40;13.60;57.30
62583;DHT22;48641;51.676;5.808;2023-03-01T04:30:08;13.60;57.30
62583;DHT22;48641;51.676;5.808;2023-03-01T04:32:33;13.60;58.20
62583;DHT22;48641;51.676;5.808;2023-03-01T04:34:59;13.60;57.30
62583;DHT22;48641;51.676;5.808;2023-03-01T04:37:25;13.60;57.30
62583;DHT22;48641;51.676;5.808;2023-03-01T04:39:51;13.60;57.20
62583;DHT22;48641;51.676;5.808;2023-03-01T04:42:17;13.60;57.10
62583;DHT22;48641;51.676;5.808;2023-03-01T04:44:44;13.60;57.10
62583;DHT22;48641;51.676;5.808;2023-03-01T04:47:09;13.60;57.10
62583;DHT22;48641;51.676;5.808;2023-03-01T04:49:35;13.60;57.10
62583;DHT22;48641;51.676;5.808;2023-03-01T04:52:01;13.60;57.10
62583;DHT22;48641;51.676;5.808;2023-03-01T04:54:33;13.60;57.10
62583;DHT22;48641;51.676;5.808;2023-03-01T04:56:59;13.60;57.10
62583;DHT22;48641;51.676;5.808;2023-03-01T04:59:25;13.60;57.10
62583;DHT22;48641;51.676;5.808;2023-03-01T05:01:52;13.60;57.10
62583;DHT22;48641;51.676;5.808;2023-03-01T05:04:18;13.60;57.00
62583;DHT22;48641;51.676;5.808;2023-03-01T05:06:44;13.60;57.10
62583;DHT22;48641;51.676;5.808;2023-03-01T05:09:10;13.60;57.00
62583;DHT22;48641;51.676;5.808;2023-03-01T05:11:37;13.60;57.00
62583;DHT22;48641;51.676;5.808;2023-03-01T05:14:03;13.60;57.00
62583;DHT22;48641;51.676;5.808;2023-03-01T05:16:29;13.60;57.00
62583;DHT22;48641;51.676;5.808;2023-03-01T05:18:56;13.60;57.00
62583;DHT22;48641;51.676;5.808;2023-03-01T05:21:22;13.60;57.00
62583;DHT22;48641;51.676;5.808;2023-03-01T05:23:48;13.60;57.00
62583;DHT22;48641;51.676;5.808;2023-03-01T05:26:14;13.60;57.00
62583;DHT22;48641;51.676;5.808;2023-03-01T05:28:40;13.60;57.00
62583;DHT22;48641;51.676;5.808;2023-03-01T05:31:06;13.60;57.00
62583;DHT22;48641;51.676;5.808;2023-03-01T05:33:36;13.60;57.90
62583;DHT22;48641;51.676;5.808;2023-03-01T05:36:02;13.60;57.00
62583;DHT22;48641;51.676;5.808;2023-03-01T05:38:28;13.60;57.00
62583;DHT22;48641;51.676;5.808;2023-03-01T05:40:53;13.60;56.90
62583;DHT22;48641;51.676;5.808;2023-03-01T05:43:19;13.60;56.90
62583;DHT22;48641;51.676;5.808;2023-03-01T05:45:44;13.60;56.90
62583;DHT22;48641;51.676;5.808;2023-03-01T05:48:11;13.60;56.90
62583;DHT22;48641;51.676;5.808;2023-03-01T05:50:40;13.60;56.90
62583;DHT22;48641;51.676;5.808;2023-03-01T05:53:12;13.60;56.90
62583;DHT22;48641;51.676;5.808;2023-03-01T05:55:38;13.60;56.90
62583;DHT22;48641;51.676;5.808;2023-03-01T05:58:10;13.60;56.90
62583;DHT22;48641;51.676;5.808;2023-03-01T06:00:36;13.60;56.90
62583;DHT22;48641;51.676;5.808;2023-03-01T06:03:04;13.60;57.00
62583;DHT22;48641;51.676;5.808;2023-03-01T06:05:30;13.60;56.90
62583;DHT22;48641;51.676;5.808;2023-03-01T06:07:59;13.60;57.00
62583;DHT22;48641;51.676;5.808;2023-03-01T06:10:25;13.70;57.00
62583;DHT22;48641;51.676;5.808;2023-03-01T06:12:50;13.60;56.90
62583;DHT22;48641;51.676;5.808;2023-03-01T06:15:16;13.60;56.90
62583;DHT22;48641;51.676;5.808;2023-03-01T06:17:44;13.60;56.90
62583;DHT22;48641;51.676;5.808;2023-03-01T06:20:14;13.60;56.80
62583;DHT22;48641;51.676;5.808;2023-03-01T08:28:40;13.40;57.20
62583;DHT22;48641;51.676;5.808;2023-03-01T08:31:19;13.50;57.20
62583;DHT22;48641;51.676;5.808;2023-03-01T08:33:46;13.40;57.20
62583;DHT22;48641;51.676;5.808;2023-03-01T08:36:16;13.40;57.20
62583;DHT22;48641;51.676;5.808;2023-03-01T08:38:42;13.40;57.20
62583;DHT22;48641;51.676;5.808;2023-03-01T08:41:08;13.40;57.10
62583;DHT22;48641;51.676;5.808;2023-03-01T08:43:33;13.50;57.20
62583;DHT22;48641;51.676;5.808;2023-03-01T08:45:59;13.50;57.10
62583;DHT22;48641;51.676;5.808;2023-03-01T08:48:27;13.50;57.10
62583;DHT22;48641;51.676;5.808;2023-03-01T08:50:52;13.50;57.10
62583;DHT22;48641;51.676;5.808;2023-03-01T08:53:18;13.50;58.00
62583;DHT22;48641;51.676;5.808;2023-03-01T08:55:44;13.50;57.10
62583;DHT22;48641;51.676;5.808;2023-03-01T08:58:09;13.50;57.10
62583;DHT22;48641;51.676;5.808;2023-03-01T09:00:35;13.50;57.00
62583;DHT22;48641;51.676;5.808;2023-03-01T09:03:01;13.50;57.00
62583;DHT22;48641;51.676;5.808;2023-03-01T09:05:27;13.50;57.00
62583;DHT22;48641;51.676;5.808;2023-03-01T09:07:52;13.50;56.90
62583;DHT22;48641;51.676;5.808;2023-03-01T09:10:18;13.60;57.00
62583;DHT22;48641;51.676;5.808;2023-03-01T09:12:43;13.50;56.90
62583;DHT22;48641;51.676;5.808;2023-03-01T09:15:10;13.50;56.90
62583;DHT22;48641;51.676;5.808;2023-03-01T09:17:36;13.50;56.90
62583;DHT22;48641;51.676;5.808;2023-03-01T09:20:01;13.50;56.90
62583;DHT22;48641;51.676;5.808;2023-03-01T09:22:30;13.50;56.90
62583;DHT22;48641;51.676;5.808;2023-03-01T09:24:58;13.50;56.90
62583;DHT22;48641;51.676;5.808;2023-03-01T09:27:24;13.50;57.00
62583;DHT22;48641;51.676;5.808;2023-03-01T09:29:50;13.50;57.00
62583;DHT22;48641;51.676;5.808;2023-03-01T09:32:16;13.50;57.00
62583;DHT22;48641;51.676;5.808;2023-03-01T09:34:41;13.50;57.00
62583;DHT22;48641;51.676;5.808;2023-03-01T09:37:27;13.50;57.00
62583;DHT22;48641;51.676;5.808;2023-03-01T09:39:53;13.50;57.00
62583;DHT22;48641;51.676;5.808;2023-03-01T09:42:18;13.50;57.10
62583;DHT22;48641;51.676;5.808;2023-03-01T09:45:06;13.50;57.10
62583;DHT22;48641;51.676;5.808;2023-03-01T09:47:36;13.50;57.10
62583;DHT22;48641;51.676;5.808;2023-03-01T09:50:19;13.50;57.20
62583;DHT22;48641;51.676;5.808;2023-03-01T09:53:07;13.50;57.10
62583;DHT22;48641;51.676;5.808;2023-03-01T09:55:48;13.50;57.10
62583;DHT22;48641;51.676;5.808;2023-03-01T10:07:33;13.50;57.30
62583;DHT22;48641;51.676;5.808;2023-03-01T10:09:37;13.50;57.30
62583;DHT22;48641;51.676;5.808;2023-03-01T10:12:09;13.50;57.30
62583;DHT22;48641;51.676;5.808;2023-03-01T10:17:30;13.50;57.30
62583;DHT22;48641;51.676;5.808;2023-03-01T10:20:24;13.50;57.30
62583;DHT22;48641;51.676;5.808;2023-03-01T10:22:50;13.50;57.30
62583;DHT22;48641;51.676;5.808;2023-03-01T10:25:31;13.50;57.40
62583;DHT22;48641;51.676;5.808;2023-03-01T10:28:10;13.50;57.40
62583;DHT22;48641;51.676;5.808;2023-03-01T10:30:39;13.50;57.40
62583;DHT22;48641;51.676;5.808;2023-03-01T10:33:26;13.50;57.40
62583;DHT22;48641;51.676;5.808;2023-03-01T10:35:53;13.50;57.30
62583;DHT22;48641;51.676;5.808;2023-03-01T10:38:19;13.50;57.50
62583;DHT22;48641;51.676;5.808;2023-03-01T10:40:56;13.50;57.40
62583;DHT22;48641;51.676;5.808;2023-03-01T10:43:27;13.50;57.50
62583;DHT22;48641;51.676;5.808;2023-03-01T10:45:53;13.50;57.50
62583;DHT22;48641;51.676;5.808;2023-03-01T10:48:21;13.50;57.50
62583;DHT22;48641;51.676;5.808;2023-03-01T10:56:08;13.60;57.60
62583;DHT22;48641;51.676;5.808;2023-03-01T10:58:36;13.60;57.50
62583;DHT22;48641;51.676;5.808;2023-03-01T11:01:04;13.60;57.50
62583;DHT22;48641;51.676;5.808;2023-03-01T11:03:38;13.60;57.60
62583;DHT22;48641;51.676;5.808;2023-03-01T11:08:44;13.60;57.60
62583;DHT22;48641;51.676;5.808;2023-03-01T11:13:54;13.60;57.60
62583;DHT22;48641;51.676;5.808;2023-03-01T11:16:40;13.70;57.70
62583;DHT22;48641;51.676;5.808;2023-03-01T11:21:37;13.70;57.60
62583;DHT22;48641;51.676;5.808;2023-03-01T11:24:09;13.70;57.50
62583;DHT22;48641;51.676;5.808;2023-03-01T11:26:39;13.70;57.50
62583;DHT22;48641;51.676;5.808;2023-03-01T11:29:16;13.70;57.50
62583;DHT22;48641;51.676;5.808;2023-03-01T11:31:44;13.70;57.50
62583;DHT22;48641;51.676;5.808;2023-03-01T11:34:14;13.70;57.50
62583;DHT22;48641;51.676;5.808;2023-03-01T11:36:48;13.70;57.50
62583;DHT22;48641;51.676;5.808;2023-03-01T11:39:28;13.70;57.40
62583;DHT22;48641;51.676;5.808;2023-03-01T11:42:32;13.80;57.40
62583;DHT22;48641;51.676;5.808;2023-03-01T11:45:08;13.80;57.40
62583;DHT22;48641;51.676;5.808;2023-03-01T11:47:51;13.80;57.50
62583;DHT22;48641;51.676;5.808;2023-03-01T11:50:47;13.80;57.60
62583;DHT22;48641;51.676;5.808;2023-03-01T11:56:07;13.80;57.60
62583;DHT22;48641;51.676;5.808;2023-03-01T11:58:57;13.80;57.70
62583;DHT22;48641;51.676;5.808;2023-03-01T12:07:46;13.90;57.60
62583;DHT22;48641;51.676;5.808;2023-03-01T12:10:25;13.90;57.60
62583;DHT22;48641;51.676;5.808;2023-03-01T12:15:47;14.00;57.60
62583;DHT22;48641;51.676;5.808;2023-03-01T12:23:56;14.10;57.40
62583;DHT22;48641;51.676;5.808;2023-03-01T12:26:29;14.10;57.30
62583;DHT22;48641;51.676;5.808;2023-03-01T12:29:14;14.10;57.40
62583;DHT22;48641;51.676;5.808;2023-03-01T12:35:03;14.20;57.20
62583;DHT22;48641;51.676;5.808;2023-03-01T12:37:51;14.20;57.30
62583;DHT22;48641;51.676;5.808;2023-03-01T12:49:27;14.30;57.10
62583;DHT22;48641;51.676;5.808;2023-03-01T12:52:04;14.30;57.00
62583;DHT22;48641;51.676;5.808;2023-03-01T12:54:36;14.40;57.20
62583;DHT22;48641;51.676;5.808;2023-03-01T13:02:47;14.40;57.10
62583;DHT22;48641;51.676;5.808;2023-03-01T13:05:20;14.50;57.00
62583;DHT22;48641;51.676;5.808;2023-03-01T13:08:08;14.50;57.10
62583;DHT22;48641;51.676;5.808;2023-03-01T13:10:49;14.50;57.10
62583;DHT22;48641;51.676;5.808;2023-03-01T13:13:23;14.50;57.00
62583;DHT22;48641;51.676;5.808;2023-03-01T13:15:50;14.50;57.00
62583;DHT22;48641;51.676;5.808;2023-03-01T13:20:50;14.50;57.00
62583;DHT22;48641;51.676;5.808;2023-03-01T13:26:01;14.50;57.20
62583;DHT22;48641;51.676;5.808;2023-03-01T13:30:59;14.50;57.40
62583;DHT22;48641;51.676;5.808;2023-03-01T13:35:58;14.50;57.30
62583;DHT22;48641;51.676;5.808;2023-03-01T13:38:47;14.50;57.20
62583;DHT22;48641;51.676;5.808;2023-03-01T13:41:15;14.60;57.10
62583;DHT22;48641;51.676;5.808;2023-03-01T13:43:43;14.60;58.20
62583;DHT22;48641;51.676;5.808;2023-03-01T13:46:19;14.60;57.20
62583;DHT22;48641;51.676;5.808;2023-03-01T13:48:49;14.60;57.20
62583;DHT22;48641;51.676;5.808;2023-03-01T13:51:15;14.60;57.20
62583;DHT22;48641;51.676;5.808;2023-03-01T13:53:46;14.60;57.10
62583;DHT22;48641;51.676;5.808;2023-03-01T13:58:58;14.60;57.10
62583;DHT22;48641;51.676;5.808;2023-03-01T14:01:28;14.70;57.20
62583;DHT22;48641;51.676;5.808;2023-03-01T14:03:54;14.70;57.20
62583;DHT22;48641;51.676;5.808;2023-03-01T14:06:24;14.70;57.20
62583;DHT22;48641;51.676;5.808;2023-03-01T14:09:00;14.70;57.20
62583;DHT22;48641;51.676;5.808;2023-03-01T14:12:15;14.70;58.20
62583;DHT22;48641;51.676;5.808;2023-03-01T14:19:30;14.70;57.20
62583;DHT22;48641;51.676;5.808;2023-03-01T14:22:20;14.70;57.20
62583;DHT22;48641;51.676;5.808;2023-03-01T14:24:53;14.70;57.20
62583;DHT22;48641;51.676;5.808;2023-03-01T14:27:20;14.70;57.20
62583;DHT22;48641;51.676;5.808;2023-03-01T14:29:57;14.80;57.20
62583;DHT22;48641;51.676;5.808;2023-03-01T14:32:31;14.80;57.20
62583;DHT22;48641;51.676;5.808;2023-03-01T14:34:59;14.80;57.20
62583;DHT22;48641;51.676;5.808;2023-03-01T14:37:34;14.80;57.20
62583;DHT22;48641;51.676;5.808;2023-03-01T14:40:03;14.80;57.10
62583;DHT22;48641;51.676;5.808;2023-03-01T14:42:34;14.80;57.10
62583;DHT22;48641;51.676;5.808;2023-03-01T14:45:01;14.80;57.10
62583;DHT22;48641;51.676;5.808;2023-03-01T14:47:32;14.80;57.10
62583;DHT22;48641;51.676;5.808;2023-03-01T14:50:16;14.80;57.10
62583;DHT22;48641;51.676;5.808;2023-03-01T14:52:47;14.80;57.10
62583;DHT22;48641;51.676;5.808;2023-03-01T14:55:24;14.80;57.20
62583;DHT22;48641;51.676;5.808;2023-03-01T14:57:51;14.80;57.20
62583;DHT22;48641;51.676;5.808;2023-03-01T15:00:29;14.70;57.20
62583;DHT22;48641;51.676;5.808;2023-03-01T15:03:00;14.70;57.20
62583;DHT22;48641;51.676;5.808;2023-03-01T15:05:29;14.70;57.30
62583;DHT22;48641;51.676;5.808;2023-03-01T15:07:58;14.70;57.30
62583;DHT22;48641;51.676;5.808;2023-03-01T15:10:28;14.70;57.30
62583;DHT22;48641;51.676;5.808;2023-03-01T15:12:54;14.70;57.50
62583;DHT22;48641;51.676;5.808;2023-03-01T15:15:32;14.70;57.50
62583;DHT22;48641;51.676;5.808;2023-03-01T15:18:05;14.70;57.40
62583;DHT22;48641;51.676;5.808;2023-03-01T15:20:33;14.70;57.50
62583;DHT22;48641;51.676;5.808;2023-03-01T15:23:01;14.70;57.50
62583;DHT22;48641;51.676;5.808;2023-03-01T15:25:29;14.60;57.40
62583;DHT22;48641;51.676;5.808;2023-03-01T15:27:57;14.60;57.40
62583;DHT22;48641;51.676;5.808;2023-03-01T15:30:31;14.70;57.40
62583;DHT22;48641;51.676;5.808;2023-03-01T15:33:20;14.70;57.40
62583;DHT22;48641;51.676;5.808;2023-03-01T15:35:54;14.70;57.30
62583;DHT22;48641;51.676;5.808;2023-03-01T15:40:53;14.60;57.30
62583;DHT22;48641;51.676;5.808;2023-03-01T15:43:42;14.60;57.40
62583;DHT22;48641;51.676;5.808;2023-03-01T15:46:21;14.60;57.30
62583;DHT22;48641;51.676;5.808;2023-03-01T15:48:52;14.60;57.40
62583;DHT22;48641;51.676;5.808;2023-03-01T15:51:26;14.60;57.50
62583;DHT22;48641;51.676;5.808;2023-03-01T15:53:53;14.50;57.50
62583;DHT22;48641;51.676;5.808;2023-03-01T15:56:19;14.50;57.50
62583;DHT22;48641;51.676;5.808;2023-03-01T15:58:45;14.50;57.50
62583;DHT22;48641;51.676;5.808;2023-03-01T16:01:13;14.50;57.50
62583;DHT22;48641;51.676;5.808;2023-03-01T16:03:40;14.50;57.60
62583;DHT22;48641;51.676;5.808;2023-03-01T16:06:05;14.50;57.70
62583;DHT22;48641;51.676;5.808;2023-03-01T16:08:31;14.50;57.70
62583;DHT22;48641;51.676;5.808;2023-03-01T16:10:57;14.50;57.70
62583;DHT22;48641;51.676;5.808;2023-03-01T16:13:23;14.50;57.70
62583;DHT22;48641;51.676;5.808;2023-03-01T16:15:50;14.50;57.70
62583;DHT22;48641;51.676;5.808;2023-03-01T16:18:17;14.50;57.60
62583;DHT22;48641;51.676;5.808;2023-03-01T16:20:42;14.50;57.60
62583;DHT22;48641;51.676;5.808;2023-03-01T16:23:10;14.50;57.60
62583;DHT22;48641;51.676;5.808;2023-03-01T16:25:36;14.50;57.60
62583;DHT22;48641;51.676;5.808;2023-03-01T16:28:03;14.50;57.60
62583;DHT22;48641;51.676;5.808;2023-03-01T16:30:34;14.50;57.60
62583;DHT22;48641;51.676;5.808;2023-03-01T16:33:01;14.50;57.50
62583;DHT22;48641;51.676;5.808;2023-03-01T16:35:32;14.50;57.60
62583;DHT22;48641;51.676;5.808;2023-03-01T16:37:59;14.50;57.60
62583;DHT22;48641;51.676;5.808;2023-03-01T16:40:27;14.50;57.70
62583;DHT22;48641;51.676;5.808;2023-03-01T16:42:54;14.50;57.70
62583;DHT22;48641;51.676;5.808;2023-03-01T16:45:24;14.50;57.70
62583;DHT22;48641;51.676;5.808;2023-03-01T16:47:53;14.40;57.70
62583;DHT22;48641;51.676;5.808;2023-03-01T16:50:19;14.50;57.80
62583;DHT22;48641;51.676;5.808;2023-03-01T16:52:44;14.50;57.80
62583;DHT22;48641;51.676;5.808;2023-03-01T16:55:10;14.50;57.80
62583;DHT22;48641;51.676;5.808;2023-03-01T16:57:38;14.50;57.30
62583;DHT22;48641;51.676;5.808;2023-03-01T17:00:07;14.50;57.50
62583;DHT22;48641;51.676;5.808;2023-03-01T17:02:35;14.50;57.50
62583;DHT22;48641;51.676;5.808;2023-03-01T17:05:01;14.50;57.50
62583;DHT22;48641;51.676;5.808;2023-03-01T17:07:30;14.50;57.50
62583;DHT22;48641;51.676;5.808;2023-03-01T17:10:00;14.50;57.60
62583;DHT22;48641;51.676;5.808;2023-03-01T17:12:26;14.50;57.60
62583;DHT22;48641;51.676;5.808;2023-03-01T17:14:52;14.50;57.60
62583;DHT22;48641;51.676;5.808;2023-03-01T17:17:18;14.50;57.70
62583;DHT22;48641;51.676;5.808;2023-03-01T17:19:44;14.50;57.60
62583;DHT22;48641;51.676;5.808;2023-03-01T17:22:10;14.50;57.70
62583;DHT22;48641;51.676;5.808;2023-03-01T17:24:37;14.50;57.70
62583;DHT22;48641;51.676;5.808;2023-03-01T17:27:03;14.40;57.60
62583;DHT22;48641;51.676;5.808;2023-03-01T17:29:30;14.40;57.70
62583;DHT22;48641;51.676;5.808;2023-03-01T17:31:55;14.40;57.70
62583;DHT22;48641;51.676;5.808;2023-03-01T17:34:22;14.40;57.70
62583;DHT22;48641;51.676;5.808;2023-03-01T17:36:49;14.40;57.70
62583;DHT22;48641;51.676;5.808;2023-03-01T17:39:17;14.40;57.70
62583;DHT22;48641;51.676;5.808;2023-03-01T17:41:45;14.40;57.60
62583;DHT22;48641;51.676;5.808;2023-03-01T17:44:10;14.40;57.60
62583;DHT22;48641;51.676;5.808;2023-03-01T19:46:58;14.00;57.80
62583;DHT22;48641;51.676;5.808;2023-03-01T20:42:48;13.80;57.80
62583;DHT22;48641;51.676;5.808;2023-03-01T20:45:15;13.80;57.80
62583;DHT22;48641;51.676;5.808;2023-03-01T20:48:05;13.80;57.80
62583;DHT22;48641;51.676;5.808;2023-03-01T20:50:34;13.90;57.70
62583;DHT22;48641;51.676;5.808;2023-03-01T20:53:07;13.80;57.70
62583;DHT22;48641;51.676;5.808;2023-03-01T21:03:32;13.80;57.40
62583;DHT22;48641;51.676;5.808;2023-03-01T21:06:00;13.80;57.40
62583;DHT22;48641;51.676;5.808;2023-03-01T21:08:27;13.80;57.40
62583;DHT22;48641;51.676;5.808;2023-03-01T21:10:56;13.90;57.50
62583;DHT22;48641;51.676;5.808;2023-03-01T21:13:23;13.90;57.40
62583;DHT22;48641;51.676;5.808;2023-03-01T21:16:09;13.90;57.50
62583;DHT22;48641;51.676;5.808;2023-03-01T21:18:37;13.90;57.30
62583;DHT22;48641;51.676;5.808;2023-03-01T21:21:14;13.80;57.40
62583;DHT22;48641;51.676;5.808;2023-03-01T21:23:42;13.90;57.30
62583;DHT22;48641;51.676;5.808;2023-03-01T21:26:10;13.80;57.30
62583;DHT22;48641;51.676;5.808;2023-03-01T21:28:36;13.80;57.30
62583;DHT22;48641;51.676;5.808;2023-03-01T21:31:16;13.80;57.30
62583;DHT22;48641;51.676;5.808;2023-03-01T21:33:47;13.80;57.30
62583;DHT22;48641;51.676;5.808;2023-03-01T21:36:14;13.80;57.30
62583;DHT22;48641;51.676;5.808;2023-03-01T21:38:42;13.80;57.30
62583;DHT22;48641;51.676;5.808;2023-03-01T21:41:21;13.80;57.30
62583;DHT22;48641;51.676;5.808;2023-03-01T21:43:48;13.80;57.20
62583;DHT22;48641;51.676;5.808;2023-03-01T21:46:22;13.80;57.20
62583;DHT22;48641;51.676;5.808;2023-03-01T21:48:49;13.80;57.20
62583;DHT22;48641;51.676;5.808;2023-03-01T21:51:16;13.80;57.40
62583;DHT22;48641;51.676;5.808;2023-03-01T21:53:42;13.80;57.40
62583;DHT22;48641;51.676;5.808;2023-03-01T21:56:09;13.80;57.20
62583;DHT22;48641;51.676;5.808;2023-03-01T21:58:39;13.80;57.20
62583;DHT22;48641;51.676;5.808;2023-03-01T22:01:08;13.80;57.20
62583;DHT22;48641;51.676;5.808;2023-03-01T22:03:35;13.80;57.20
62583;DHT22;48641;51.676;5.808;2023-03-01T22:06:29;13.70;57.10
62583;DHT22;48641;51.676;5.808;2023-03-01T22:09:10;13.70;57.40
62583;DHT22;48641;51.676;5.808;2023-03-01T22:11:39;13.70;57.40
62583;DHT22;48641;51.676;5.808;2023-03-01T22:14:05;13.70;57.40
62583;DHT22;48641;51.676;5.808;2023-03-01T22:16:33;13.60;57.30
62583;DHT22;48641;51.676;5.808;2023-03-01T22:19:00;13.70;57.30
62583;DHT22;48641;51.676;5.808;2023-03-01T22:21:26;13.70;57.20
62583;DHT22;48641;51.676;5.808;2023-03-01T22:23:52;13.70;57.30
62583;DHT22;48641;51.676;5.808;2023-03-01T22:26:24;13.70;57.20
62583;DHT22;48641;51.676;5.808;2023-03-01T22:28:51;13.70;57.20